sensor_id;sensor_type;location;lat;lon;timestamp;pressure;altitude;pressure_sealevel;temperature;humidity
44148;BME280;29810;55.848;37.368;2023-01-15T00:00:15;99680.41;;;-0.78;77.39
44148;BME280;29810;55.848;37.368;2023-01-15T00:03:17;99680.50;;;-0.72;77.39
44148;BME280;29810;55.848;37.368;2023-01-15T00:06:20;99677.97;;;-0.69;77.08
44148;BME280;29810;55.848;37.368;2023-01-15T00:09:22;99683.19;;;-0.64;76.84
44148;BME280;29810;55.848;37.368;2023-01-15T00:12:23;99682.28;;;-0.66;76.71
44148;BME280;29810;55.848;37.368;2023-01-15T00:15:25;99694.94;;;-0.77;76.89
44148;BME280;29810;55.848;37.368;2023-01-15T00:18:26;99656.97;;;-1.00;76.99
44148;BME280;29810;55.848;37.368;2023-01-15T00:21:29;99681.97;;;-0.86;77.08
44148;BME280;29810;55.848;37.368;2023-01-15T00:24:31;99678.53;;;-0.87;77.48
44148;BME280;29810;55.848;37.368;2023-01-15T00:27:52;99678.59;;;-0.84;77.41
44148;BME280;29810;55.848;37.368;2023-01-15T00:30:53;99678.63;;;-0.80;77.33
44148;BME280;29810;55.848;37.368;2023-01-15T00:33:55;99675.28;;;-0.78;77.33
44148;BME280;29810;55.848;37.368;2023-01-15T00:36:57;99674.47;;;-0.74;77.44
44148;BME280;29810;55.848;37.368;2023-01-15T00:39:59;99670.28;;;-0.69;77.43
44148;BME280;29810;55.848;37.368;2023-01-15T00:43:00;99668.50;;;-0.76;77.07
44148;BME280;29810;55.848;37.368;2023-01-15T00:46:02;99660.59;;;-0.88;77.15
44148;BME280;29810;55.848;37.368;2023-01-15T00:49:05;99656.38;;;-0.86;77.18
44148;BME280;29810;55.848;37.368;2023-01-15T00:52:07;99653.06;;;-0.79;77.40
44148;BME280;29810;55.848;37.368;2023-01-15T00:55:08;99650.63;;;-0.70;77.23
44148;BME280;29810;55.848;37.368;2023-01-15T00:58:10;99651.59;;;-0.63;76.65
44148;BME280;29810;55.848;37.368;2023-01-15T01:01:13;99643.78;;;-0.71;76.35
44148;BME280;29810;55.848;37.368;2023-01-15T01:04:16;99656.44;;;-0.81;76.62
44148;BME280;29810;55.848;37.368;2023-01-15T01:07:17;99640.16;;;-0.85;77.03
44148;BME280;29810;55.848;37.368;2023-01-15T01:10:19;99649.56;;;-0.82;77.07
44148;BME280;29810;55.848;37.368;2023-01-15T01:13:20;99653.84;;;-0.83;76.84
44148;BME280;29810;55.848;37.368;2023-01-15T01:16:26;99644.31;;;-0.92;76.80
44148;BME280;29810;55.848;37.368;2023-01-15T01:19:28;99659.78;;;-0.84;77.05
44148;BME280;29810;55.848;37.368;2023-01-15T01:22:30;99656.38;;;-0.86;77.05
44148;BME280;29810;55.848;37.368;2023-01-15T01:25:35;99637.25;;;-1.07;76.82
44148;BME280;29810;55.848;37.368;2023-01-15T01:28:37;99639.72;;;-1.10;77.20
44148;BME280;29810;55.848;37.368;2023-01-15T01:31:41;99638.13;;;-1.05;77.54
44148;BME280;29810;55.848;37.368;2023-01-15T01:34:43;99639.16;;;-0.95;77.50
44148;BME280;29810;55.848;37.368;2023-01-15T01:37:49;99639.94;;;-0.99;77.36
44148;BME280;29810;55.848;37.368;2023-01-15T01:40:51;99633.22;;;-0.92;77.41
44148;BME280;29810;55.848;37.368;2023-01-15T01:43:58;99636.16;;;-0.69;77.25
44148;BME280;29810;55.848;37.368;2023-01-15T01:47:03;99640.19;;;-0.84;76.67
44148;BME280;29810;55.848;37.368;2023-01-15T01:50:08;99642.75;;;-0.84;77.12
44148;BME280;29810;55.848;37.368;2023-01-15T01:53:17;99648.00;;;-0.76;76.93
44148;BME280;29810;55.848;37.368;2023-01-15T01:56:20;99642.09;;;-0.70;77.00
44148;BME280;29810;55.848;37.368;2023-01-15T01:59:24;99644.53;;;-0.78;76.66
44148;BME280;29810;55.848;37.368;2023-01-15T02:02:27;99641.94;;;-0.81;76.80
44148;BME280;29810;55.848;37.368;2023-01-15T02:05:36;99619.59;;;-0.91;76.78
44148;BME280;29810;55.848;37.368;2023-01-15T02:08:38;99632.50;;;-0.84;77.03
44148;BME280;29810;55.848;37.368;2023-01-15T02:11:40;99628.22;;;-0.86;76.79
44148;BME280;29810;55.848;37.368;2023-01-15T02:15:12;99608.34;;;-1.00;76.87
44148;BME280;29810;55.848;37.368;2023-01-15T02:18:33;99626.66;;;-0.75;77.09
44148;BME280;29810;55.848;37.368;2023-01-15T02:28:17;99624.97;;;-0.74;77.25
44148;BME280;29810;55.848;37.368;2023-01-15T02:31:41;99624.16;;;-0.72;76.57
44148;BME280;29810;55.848;37.368;2023-01-15T02:34:53;99618.94;;;-0.78;76.31
44148;BME280;29810;55.848;37.368;2023-01-15T02:37:59;99620.47;;;-0.88;76.70
44148;BME280;29810;55.848;37.368;2023-01-15T02:41:05;99618.78;;;-0.87;76.88
44148;BME280;29810;55.848;37.368;2023-01-15T02:44:12;99614.53;;;-0.85;77.04
44148;BME280;29810;55.848;37.368;2023-01-15T02:47:21;99628.34;;;-0.78;76.92
44148;BME280;29810;55.848;37.368;2023-01-15T02:50:28;99614.72;;;-0.76;76.71
44148;BME280;29810;55.848;37.368;2023-01-15T02:53:32;99621.53;;;-0.75;76.68
44148;BME280;29810;55.848;37.368;2023-01-15T02:56:36;99629.16;;;-0.81;76.13
44148;BME280;29810;55.848;37.368;2023-01-15T02:59:45;99623.00;;;-0.91;77.05
44148;BME280;29810;55.848;37.368;2023-01-15T03:02:56;99624.62;;;-0.94;77.26
44148;BME280;29810;55.848;37.368;2023-01-15T03:06:14;99614.25;;;-1.04;77.08
44148;BME280;29810;55.848;37.368;2023-01-15T03:09:18;99634.97;;;-0.88;77.43
44148;BME280;29810;55.848;37.368;2023-01-15T03:19:26;99637.44;;;-0.94;77.22
44148;BME280;29810;55.848;37.368;2023-01-15T03:22:35;99634.16;;;-0.87;77.61
44148;BME280;29810;55.848;37.368;2023-01-15T03:25:46;99639.19;;;-0.92;77.22
44148;BME280;29810;55.848;37.368;2023-01-15T03:28:49;99642.66;;;-0.88;77.55
44148;BME280;29810;55.848;37.368;2023-01-15T03:31:51;99640.09;;;-0.88;77.31
44148;BME280;29810;55.848;37.368;2023-01-15T03:34:54;99632.38;;;-0.91;77.34
44148;BME280;29810;55.848;37.368;2023-01-15T03:37:56;99633.38;;;-0.83;77.79
44148;BME280;29810;55.848;37.368;2023-01-15T03:44:31;99627.53;;;-0.76;78.05
44148;BME280;29810;55.848;37.368;2023-01-15T03:51:07;99630.88;;;-0.78;78.98
44148;BME280;29810;55.848;37.368;2023-01-15T03:54:23;99633.13;;;-0.97;78.89
44148;BME280;29810;55.848;37.368;2023-01-15T04:00:55;99637.41;;;-0.96;80.33
44148;BME280;29810;55.848;37.368;2023-01-15T04:04:03;99637.44;;;-0.94;80.69
44148;BME280;29810;55.848;37.368;2023-01-15T04:07:06;99633.91;;;-1.01;80.58
44148;BME280;29810;55.848;37.368;2023-01-15T04:10:09;99635.66;;;-1.00;80.72
44148;BME280;29810;55.848;37.368;2023-01-15T04:13:11;99630.69;;;-0.91;81.09
44148;BME280;29810;55.848;37.368;2023-01-15T04:16:16;99631.59;;;-0.87;80.92
44148;BME280;29810;55.848;37.368;2023-01-15T04:19:21;99630.44;;;-1.05;81.37
44148;BME280;29810;55.848;37.368;2023-01-15T04:22:28;99614.16;;;-1.10;81.08
44148;BME280;29810;55.848;37.368;2023-01-15T04:25:29;99638.38;;;-0.89;81.05
44148;BME280;29810;55.848;37.368;2023-01-15T04:28:31;99633.25;;;-0.89;81.17
44148;BME280;29810;55.848;37.368;2023-01-15T04:31:32;99634.09;;;-0.90;81.30
44148;BME280;29810;55.848;37.368;2023-01-15T04:34:36;99640.00;;;-0.94;81.60
44148;BME280;29810;55.848;37.368;2023-01-15T04:37:37;99647.78;;;-0.90;81.74
44148;BME280;29810;55.848;37.368;2023-01-15T04:40:39;99651.28;;;-0.83;81.64
44148;BME280;29810;55.848;37.368;2023-01-15T04:43:59;99646.25;;;-0.78;81.66
44148;BME280;29810;55.848;37.368;2023-01-15T04:47:07;99634.28;;;-0.79;81.64
44148;BME280;29810;55.848;37.368;2023-01-15T04:50:09;99635.94;;;-0.81;81.76
44148;BME280;29810;55.848;37.368;2023-01-15T04:53:11;99638.59;;;-0.77;81.96
44148;BME280;29810;55.848;37.368;2023-01-15T04:56:13;99632.69;;;-0.73;81.53
44148;BME280;29810;55.848;37.368;2023-01-15T04:59:16;99627.41;;;-0.82;81.41
44148;BME280;29810;55.848;37.368;2023-01-15T05:02:17;99628.25;;;-0.83;81.68
44148;BME280;29810;55.848;37.368;2023-01-15T05:05:19;99628.13;;;-0.89;82.01
44148;BME280;29810;55.848;37.368;2023-01-15T05:08:20;99628.81;;;-1.00;82.21
44148;BME280;29810;55.848;37.368;2023-01-15T05:11:22;99620.13;;;-1.11;82.81
44148;BME280;29810;55.848;37.368;2023-01-15T05:14:23;99629.47;;;-1.13;83.10
44148;BME280;29810;55.848;37.368;2023-01-15T05:17:25;99624.34;;;-1.13;83.35
44148;BME280;29810;55.848;37.368;2023-01-15T05:20:26;99627.66;;;-1.19;83.33
44148;BME280;29810;55.848;37.368;2023-01-15T05:23:28;99627.66;;;-1.20;83.77
44148;BME280;29810;55.848;37.368;2023-01-15T05:26:31;99625.16;;;-1.15;83.78
44148;BME280;29810;55.848;37.368;2023-01-15T05:29:33;99620.94;;;-1.13;83.83
44148;BME280;29810;55.848;37.368;2023-01-15T05:32:34;99613.37;;;-1.06;83.67
44148;BME280;29810;55.848;37.368;2023-01-15T05:35:36;99621.25;;;-0.93;83.48
44148;BME280;29810;55.848;37.368;2023-01-15T05:38:38;99610.75;;;-1.09;83.45
44148;BME280;29810;55.848;37.368;2023-01-15T05:41:40;99623.50;;;-1.12;83.47
44148;BME280;29810;55.848;37.368;2023-01-15T05:44:51;99623.50;;;-1.13;83.67
44148;BME280;29810;55.848;37.368;2023-01-15T05:47:53;99615.06;;;-1.06;83.63
44148;BME280;29810;55.848;37.368;2023-01-15T05:50:54;99585.12;;;-1.12;83.79
44148;BME280;29810;55.848;37.368;2023-01-15T05:54:19;99601.47;;;-1.02;82.90
44148;BME280;29810;55.848;37.368;2023-01-15T05:57:21;99604.22;;;-0.91;83.67
44148;BME280;29810;55.848;37.368;2023-01-15T06:00:23;99594.72;;;-0.97;82.96
44148;BME280;29810;55.848;37.368;2023-01-15T06:03:26;99598.97;;;-1.01;82.84
44148;BME280;29810;55.848;37.368;2023-01-15T06:06:28;99577.41;;;-1.15;82.79
44148;BME280;29810;55.848;37.368;2023-01-15T06:09:30;99592.13;;;-1.00;82.73
44148;BME280;29810;55.848;37.368;2023-01-15T06:12:31;99615.25;;;-0.95;82.41
44148;BME280;29810;55.848;37.368;2023-01-15T06:15:53;99625.53;;;-0.94;82.22
44148;BME280;29810;55.848;37.368;2023-01-15T06:28:17;99633.31;;;-0.86;82.54
44148;BME280;29810;55.848;37.368;2023-01-15T06:31:20;99630.13;;;-0.73;82.91
44148;BME280;29810;55.848;37.368;2023-01-15T06:34:36;99636.78;;;-0.82;82.09
44148;BME280;29810;55.848;37.368;2023-01-15T06:37:38;99641.97;;;-0.79;82.10
44148;BME280;29810;55.848;37.368;2023-01-15T06:40:39;99642.97;;;-0.68;82.09
44148;BME280;29810;55.848;37.368;2023-01-15T06:43:41;99635.34;;;-0.67;81.83
44148;BME280;29810;55.848;37.368;2023-01-15T06:47:19;99626.03;;;-0.60;81.80
44148;BME280;29810;55.848;37.368;2023-01-15T06:50:23;99617.56;;;-0.54;81.80
44148;BME280;29810;55.848;37.368;2023-01-15T06:53:24;99619.03;;;-0.72;81.51
44148;BME280;29810;55.848;37.368;2023-01-15T06:56:26;99619.06;;;-0.70;81.67
44148;BME280;29810;55.848;37.368;2023-01-15T06:59:27;99624.97;;;-0.74;81.23
44148;BME280;29810;55.848;37.368;2023-01-15T07:02:29;99625.91;;;-0.69;81.41
44148;BME280;29810;55.848;37.368;2023-01-15T07:05:31;99623.38;;;-0.68;81.08
44148;BME280;29810;55.848;37.368;2023-01-15T07:08:33;99635.37;;;-0.62;81.11
44148;BME280;29810;55.848;37.368;2023-01-15T07:11:34;99630.34;;;-0.59;80.61
44148;BME280;29810;55.848;37.368;2023-01-15T07:14:36;99628.66;;;-0.55;80.27
44148;BME280;29810;55.848;37.368;2023-01-15T07:17:40;99631.34;;;-0.47;80.31
44148;BME280;29810;55.848;37.368;2023-01-15T07:20:43;99629.66;;;-0.45;79.70
44148;BME280;29810;55.848;37.368;2023-01-15T07:23:44;99639.91;;;-0.47;79.60
44148;BME280;29810;55.848;37.368;2023-01-15T07:27:06;99636.47;;;-0.46;79.69
44148;BME280;29810;55.848;37.368;2023-01-15T07:30:21;99628.91;;;-0.38;79.24
44148;BME280;29810;55.848;37.368;2023-01-15T07:33:22;99625.38;;;-0.45;79.25
44148;BME280;29810;55.848;37.368;2023-01-15T07:36:24;99618.66;;;-0.37;79.06
44148;BME280;29810;55.848;37.368;2023-01-15T07:39:27;99622.00;;;-0.44;78.74
44148;BME280;29810;55.848;37.368;2023-01-15T07:42:28;99622.03;;;-0.41;78.78
44148;BME280;29810;55.848;37.368;2023-01-15T07:45:48;99614.38;;;-0.39;78.85
44148;BME280;29810;55.848;37.368;2023-01-15T07:49:12;99612.69;;;-0.39;78.41
44148;BME280;29810;55.848;37.368;2023-01-15T07:52:32;99623.72;;;-0.43;78.12
44148;BME280;29810;55.848;37.368;2023-01-15T07:55:35;99629.81;;;-0.35;78.96
44148;BME280;29810;55.848;37.368;2023-01-15T07:58:36;99617.84;;;-0.34;78.65
44148;BME280;29810;55.848;37.368;2023-01-15T08:01:38;99624.66;;;-0.36;78.66
44148;BME280;29810;55.848;37.368;2023-01-15T08:04:40;99624.66;;;-0.36;78.94
44148;BME280;29810;55.848;37.368;2023-01-15T08:07:42;99622.16;;;-0.31;78.81
44148;BME280;29810;55.848;37.368;2023-01-15T08:10:44;99623.88;;;-0.30;78.87
44148;BME280;29810;55.848;37.368;2023-01-15T08:14:08;99630.81;;;-0.23;78.90
44148;BME280;29810;55.848;37.368;2023-01-15T08:17:32;99621.50;;;-0.18;78.52
44148;BME280;29810;55.848;37.368;2023-01-15T08:20:34;99622.38;;;-0.16;78.16
44148;BME280;29810;55.848;37.368;2023-01-15T08:23:37;99634.38;;;-0.12;78.77
44148;BME280;29810;55.848;37.368;2023-01-15T08:26:39;99632.69;;;-0.13;78.57
44148;BME280;29810;55.848;37.368;2023-01-15T08:29:41;99639.56;;;-0.09;77.80
44148;BME280;29810;55.848;37.368;2023-01-15T08:33:02;99631.91;;;-0.06;78.87
44148;BME280;29810;55.848;37.368;2023-01-15T08:37:16;99627.78;;;0.06;78.15
44148;BME280;29810;55.848;37.368;2023-01-15T08:40:24;99621.09;;;0.17;78.54
44148;BME280;29810;55.848;37.368;2023-01-15T08:43:26;99622.75;;;0.16;80.32
44148;BME280;29810;55.848;37.368;2023-01-15T08:46:32;99616.81;;;0.18;80.28
44148;BME280;29810;55.848;37.368;2023-01-15T08:49:33;99622.75;;;0.15;79.72
44148;BME280;29810;55.848;37.368;2023-01-15T08:52:36;99609.94;;;0.15;81.79
44148;BME280;29810;55.848;37.368;2023-01-15T08:55:38;99616.78;;;0.14;80.94
44148;BME280;29810;55.848;37.368;2023-01-15T08:58:40;99605.63;;;0.14;81.82
44148;BME280;29810;55.848;37.368;2023-01-15T09:02:02;99621.94;;;0.19;81.55
44148;BME280;29810;55.848;37.368;2023-01-15T09:06:14;99613.50;;;0.26;78.80
44148;BME280;29810;55.848;37.368;2023-01-15T09:09:32;99614.44;;;0.35;80.15
44148;BME280;29810;55.848;37.368;2023-01-15T09:12:34;99596.28;;;0.16;82.05
44148;BME280;29810;55.848;37.368;2023-01-15T09:15:59;99607.56;;;0.32;82.06
44148;BME280;29810;55.848;37.368;2023-01-15T09:19:18;99602.53;;;0.43;80.48
44148;BME280;29810;55.848;37.368;2023-01-15T09:22:20;99600.75;;;0.36;78.33
44148;BME280;29810;55.848;37.368;2023-01-15T09:25:21;99609.12;;;0.19;80.29
44148;BME280;29810;55.848;37.368;2023-01-15T09:28:24;99586.84;;;0.12;82.05
44148;BME280;29810;55.848;37.368;2023-01-15T09:31:26;99598.09;;;0.26;81.47
44148;BME280;29810;55.848;37.368;2023-01-15T09:34:28;99591.31;;;0.31;81.32
44148;BME280;29810;55.848;37.368;2023-01-15T09:37:29;99586.31;;;0.45;81.86
44148;BME280;29810;55.848;37.368;2023-01-15T09:40:55;99588.87;;;0.47;80.66
44148;BME280;29810;55.848;37.368;2023-01-15T09:44:24;99588.06;;;0.49;79.02
44148;BME280;29810;55.848;37.368;2023-01-15T09:47:42;99588.87;;;0.44;79.05
44148;BME280;29810;55.848;37.368;2023-01-15T09:54:18;99583.75;;;0.44;79.39
44148;BME280;29810;55.848;37.368;2023-01-15T09:57:22;99578.84;;;0.69;80.46
44148;BME280;29810;55.848;37.368;2023-01-15T10:00:27;99590.69;;;0.57;81.90
44148;BME280;29810;55.848;37.368;2023-01-15T10:03:32;99592.34;;;0.47;81.31
44148;BME280;29810;55.848;37.368;2023-01-15T10:10:14;99586.47;;;0.64;77.97
44148;BME280;29810;55.848;37.368;2023-01-15T10:16:30;99593.25;;;0.57;80.14
44148;BME280;29810;55.848;37.368;2023-01-15T10:19:33;99589.13;;;0.72;80.82
44148;BME280;29810;55.848;37.368;2023-01-15T10:22:52;99585.66;;;0.66;80.35
44148;BME280;29810;55.848;37.368;2023-01-15T10:26:14;99565.94;;;0.64;79.81
44148;BME280;29810;55.848;37.368;2023-01-15T10:29:34;99585.03;;;0.92;79.62
44148;BME280;29810;55.848;37.368;2023-01-15T10:32:50;99570.53;;;0.97;80.21
44148;BME280;29810;55.848;37.368;2023-01-15T10:36:01;99567.06;;;0.95;77.97
44148;BME280;29810;55.848;37.368;2023-01-15T10:42:23;99549.53;;;0.43;78.15
44148;BME280;29810;55.848;37.368;2023-01-15T10:45:49;99553.78;;;0.43;79.39
44148;BME280;29810;55.848;37.368;2023-01-15T10:49:04;99547.81;;;0.44;78.06
44148;BME280;29810;55.848;37.368;2023-01-15T10:55:26;99548.63;;;0.37;77.63
44148;BME280;29810;55.848;37.368;2023-01-15T10:58:34;99539.03;;;0.20;81.91
44148;BME280;29810;55.848;37.368;2023-01-15T11:01:39;99543.44;;;0.33;81.13
44148;BME280;29810;55.848;37.368;2023-01-15T11:04:40;99543.44;;;0.33;81.40
44148;BME280;29810;55.848;37.368;2023-01-15T11:07:45;99540.94;;;0.37;82.01
44148;BME280;29810;55.848;37.368;2023-01-15T11:10:47;99536.63;;;0.34;80.44
44148;BME280;29810;55.848;37.368;2023-01-15T11:13:53;99538.31;;;0.35;81.99
44148;BME280;29810;55.848;37.368;2023-01-15T11:17:17;99531.53;;;0.40;79.77
44148;BME280;29810;55.848;37.368;2023-01-15T11:20:45;99523.75;;;0.29;80.21
44148;BME280;29810;55.848;37.368;2023-01-15T11:23:49;99522.84;;;0.24;77.96
44148;BME280;29810;55.848;37.368;2023-01-15T11:27:15;99523.66;;;0.22;79.32
44148;BME280;29810;55.848;37.368;2023-01-15T11:30:33;99523.75;;;0.29;77.29
44148;BME280;29810;55.848;37.368;2023-01-15T11:33:38;99524.62;;;0.33;77.84
44148;BME280;29810;55.848;37.368;2023-01-15T11:36:40;99519.44;;;0.28;80.64
44148;BME280;29810;55.848;37.368;2023-01-15T11:39:51;99496.44;;;0.35;81.22
44148;BME280;29810;55.848;37.368;2023-01-15T11:43:01;99490.56;;;0.48;79.56
44148;BME280;29810;55.848;37.368;2023-01-15T11:46:30;99494.91;;;0.55;80.55
44148;BME280;29810;55.848;37.368;2023-01-15T11:49:51;99494.84;;;0.51;77.51
44148;BME280;29810;55.848;37.368;2023-01-15T11:53:18;99509.31;;;0.41;77.93
44148;BME280;29810;55.848;37.368;2023-01-15T11:56:26;99501.62;;;0.44;78.96
44148;BME280;29810;55.848;37.368;2023-01-15T11:59:31;99499.03;;;0.39;79.09
44148;BME280;29810;55.848;37.368;2023-01-15T12:02:37;99493.84;;;0.31;79.35
44148;BME280;29810;55.848;37.368;2023-01-15T12:05:58;99499.69;;;0.16;77.12
44148;BME280;29810;55.848;37.368;2023-01-15T12:09:20;99501.38;;;0.16;78.32
44148;BME280;29810;55.848;37.368;2023-01-15T12:15:54;99509.75;;;-0.04;80.22
44148;BME280;29810;55.848;37.368;2023-01-15T12:19:09;99512.25;;;-0.07;78.69
44148;BME280;29810;55.848;37.368;2023-01-15T12:22:38;99509.62;;;-0.13;78.54
44148;BME280;29810;55.848;37.368;2023-01-15T12:29:05;99520.72;;;-0.14;78.50
44148;BME280;29810;55.848;37.368;2023-01-15T12:32:23;99521.47;;;-0.21;78.74
44148;BME280;29810;55.848;37.368;2023-01-15T12:35:32;99510.38;;;-0.22;78.46
44148;BME280;29810;55.848;37.368;2023-01-15T12:39:00;99506.16;;;-0.20;80.29
44148;BME280;29810;55.848;37.368;2023-01-15T12:42:09;99503.66;;;-0.12;78.13
44148;BME280;29810;55.848;37.368;2023-01-15T12:45:35;99490.81;;;-0.12;79.77
44148;BME280;29810;55.848;37.368;2023-01-15T12:52:17;99513.13;;;-0.08;78.63
44148;BME280;29810;55.848;37.368;2023-01-15T12:55:37;99520.75;;;-0.11;79.53
44148;BME280;29810;55.848;37.368;2023-01-15T13:05:25;99526.69;;;-0.17;81.52
44148;BME280;29810;55.848;37.368;2023-01-15T13:08:23;99518.06;;;-0.25;78.03
44148;BME280;29810;55.848;37.368;2023-01-15T13:11:26;99533.53;;;-0.14;82.23
44148;BME280;29810;55.848;37.368;2023-01-15T13:14:28;99537.59;;;-0.31;80.63
44148;BME280;29810;55.848;37.368;2023-01-15T13:17:54;99533.25;;;-0.37;80.97
44148;BME280;29810;55.848;37.368;2023-01-15T13:21:03;99538.41;;;-0.36;78.01
44148;BME280;29810;55.848;37.368;2023-01-15T13:34:06;99531.53;;;-0.37;78.99
44148;BME280;29810;55.848;37.368;2023-01-15T13:37:27;99534.06;;;-0.41;80.63
44148;BME280;29810;55.848;37.368;2023-01-15T13:40:38;99521.06;;;-0.55;78.79
44148;BME280;29810;55.848;37.368;2023-01-15T13:43:42;99528.84;;;-0.51;79.82
44148;BME280;29810;55.848;37.368;2023-01-15T13:46:46;99544.28;;;-0.44;80.89
44148;BME280;29810;55.848;37.368;2023-01-15T13:49:59;99557.88;;;-0.48;79.68
44148;BME280;29810;55.848;37.368;2023-01-15T13:56:29;99540.03;;;-0.41;80.15
44148;BME280;29810;55.848;37.368;2023-01-15T13:59:41;99537.44;;;-0.44;79.30
44148;BME280;29810;55.848;37.368;2023-01-15T14:02:52;99547.56;;;-0.55;77.74
44148;BME280;29810;55.848;37.368;2023-01-15T14:06:02;99555.16;;;-0.62;79.00
44148;BME280;29810;55.848;37.368;2023-01-15T14:09:05;99549.25;;;-0.54;80.00
44148;BME280;29810;55.848;37.368;2023-01-15T14:12:10;99533.97;;;-0.51;80.85
44148;BME280;29810;55.848;37.368;2023-01-15T14:35:12;99535.78;;;-0.42;77.85
44148;BME280;29810;55.848;37.368;2023-01-15T14:38:18;99496.97;;;-0.71;79.96
44148;BME280;29810;55.848;37.368;2023-01-15T14:41:28;99514.22;;;-0.56;80.59
44148;BME280;29810;55.848;37.368;2023-01-15T14:44:32;99479.75;;;-0.83;78.69
44148;BME280;29810;55.848;37.368;2023-01-15T14:47:48;99534.00;;;-0.46;80.98
44148;BME280;29810;55.848;37.368;2023-01-15T14:50:51;99521.28;;;-0.40;78.12
44148;BME280;29810;55.848;37.368;2023-01-15T14:54:03;99501.28;;;-0.67;78.44
44148;BME280;29810;55.848;37.368;2023-01-15T14:57:08;99528.63;;;-0.64;80.15
44148;BME280;29810;55.848;37.368;2023-01-15T15:00:15;99502.06;;;-0.73;81.00
44148;BME280;29810;55.848;37.368;2023-01-15T15:03:21;99504.66;;;-0.70;79.85
44148;BME280;29810;55.848;37.368;2023-01-15T15:06:26;99507.09;;;-0.79;80.23
44148;BME280;29810;55.848;37.368;2023-01-15T15:09:36;99514.63;;;-0.91;80.20
44148;BME280;29810;55.848;37.368;2023-01-15T15:12:44;99512.25;;;-0.77;80.49
44148;BME280;29810;55.848;37.368;2023-01-15T15:16:00;99512.34;;;-0.70;78.43
44148;BME280;29810;55.848;37.368;2023-01-15T15:19:19;99511.28;;;-0.86;77.64
44148;BME280;29810;55.848;37.368;2023-01-15T15:22:26;99508.72;;;-0.86;79.40
44148;BME280;29810;55.848;37.368;2023-01-15T15:25:34;99512.19;;;-0.82;80.20
44148;BME280;29810;55.848;37.368;2023-01-15T15:28:38;99506.28;;;-0.78;80.08
44148;BME280;29810;55.848;37.368;2023-01-15T15:31:44;99457.25;;;-1.06;80.01
44148;BME280;29810;55.848;37.368;2023-01-15T15:34:51;99490.78;;;-0.87;78.73
44148;BME280;29810;55.848;37.368;2023-01-15T15:37:56;99486.50;;;-0.88;79.60
44148;BME280;29810;55.848;37.368;2023-01-15T15:41:04;99476.50;;;-0.70;78.67
44148;BME280;29810;55.848;37.368;2023-01-15T15:44:15;99488.22;;;-0.87;79.23
44148;BME280;29810;55.848;37.368;2023-01-15T15:47:48;99485.66;;;-0.89;78.72
44148;BME280;29810;55.848;37.368;2023-01-15T15:51:37;99477.03;;;-0.94;80.77
44148;BME280;29810;55.848;37.368;2023-01-15T15:54:42;99454.84;;;-0.93;79.31
44148;BME280;29810;55.848;37.368;2023-01-15T15:57:46;99373.19;;;-1.39;80.73
44148;BME280;29810;55.848;37.368;2023-01-15T16:00:51;99454.72;;;-1.03;80.35
44148;BME280;29810;55.848;37.368;2023-01-15T16:03:54;99441.16;;;-0.97;81.02
44148;BME280;29810;55.848;37.368;2023-01-15T16:06:56;99387.84;;;-1.27;80.18
44148;BME280;29810;55.848;37.368;2023-01-15T16:10:28;99391.97;;;-1.39;79.89
44148;BME280;29810;55.848;37.368;2023-01-15T16:13:40;99299.34;;;-1.79;78.59
44148;BME280;29810;55.848;37.368;2023-01-15T16:16:46;99411.81;;;-1.22;77.93
44148;BME280;29810;55.848;37.368;2023-01-15T16:19:48;99395.66;;;-1.18;79.92
44148;BME280;29810;55.848;37.368;2023-01-15T16:22:56;99385.41;;;-1.21;79.97
44148;BME280;29810;55.848;37.368;2023-01-15T16:29:18;99375.19;;;-1.17;77.93
44148;BME280;29810;55.848;37.368;2023-01-15T16:32:29;99376.91;;;-1.17;78.32
44148;BME280;29810;55.848;37.368;2023-01-15T16:35:34;99380.38;;;-1.15;77.66
44148;BME280;29810;55.848;37.368;2023-01-15T16:38:41;99384.50;;;-1.23;79.53
44148;BME280;29810;55.848;37.368;2023-01-15T16:41:48;99392.28;;;-1.15;78.71
44148;BME280;29810;55.848;37.368;2023-01-15T16:44:54;99382.84;;;-1.20;79.82
44148;BME280;29810;55.848;37.368;2023-01-15T16:57:32;99387.97;;;-1.20;79.73
44148;BME280;29810;55.848;37.368;2023-01-15T17:00:37;99375.09;;;-1.24;80.52
44148;BME280;29810;55.848;37.368;2023-01-15T17:03:43;99388.91;;;-1.13;80.22
44148;BME280;29810;55.848;37.368;2023-01-15T17:07:03;99395.75;;;-1.10;79.18
44148;BME280;29810;55.848;37.368;2023-01-15T17:10:17;99396.59;;;-1.10;76.99
44148;BME280;29810;55.848;37.368;2023-01-15T17:13:21;99402.66;;;-1.05;77.11
44148;BME280;29810;55.848;37.368;2023-01-15T17:16:28;99404.38;;;-1.05;79.50
44148;BME280;29810;55.848;37.368;2023-01-15T17:19:31;99400.97;;;-1.06;78.64
44148;BME280;29810;55.848;37.368;2023-01-15T17:22:32;99406.91;;;-1.07;79.44
44148;BME280;29810;55.848;37.368;2023-01-15T17:25:35;99412.06;;;-1.02;78.96
44148;BME280;29810;55.848;37.368;2023-01-15T17:28:38;99414.69;;;-1.01;78.72
44148;BME280;29810;55.848;37.368;2023-01-15T17:31:40;99373.34;;;-1.28;78.38
44148;BME280;29810;55.848;37.368;2023-01-15T17:34:44;99419.78;;;-1.01;77.87
44148;BME280;29810;55.848;37.368;2023-01-15T17:37:46;99416.34;;;-1.03;77.73
44148;BME280;29810;55.848;37.368;2023-01-15T17:40:47;99417.16;;;-1.05;76.33
44148;BME280;29810;55.848;37.368;2023-01-15T17:43:52;99361.31;;;-1.36;77.65
44148;BME280;29810;55.848;37.368;2023-01-15T17:46:54;99380.22;;;-1.24;77.55
44148;BME280;29810;55.848;37.368;2023-01-15T17:49:59;99363.09;;;-1.31;76.77
44148;BME280;29810;55.848;37.368;2023-01-15T17:53:01;99406.81;;;-1.14;76.12
44148;BME280;29810;55.848;37.368;2023-01-15T17:56:04;99410.78;;;-1.34;76.02
44148;BME280;29810;55.848;37.368;2023-01-15T17:59:24;99424.44;;;-1.35;75.76
44148;BME280;29810;55.848;37.368;2023-01-15T18:02:46;99413.34;;;-1.35;76.19
44148;BME280;29810;55.848;37.368;2023-01-15T18:06:12;99409.03;;;-1.38;75.94
44148;BME280;29810;55.848;37.368;2023-01-15T18:09:15;99405.69;;;-1.34;75.27
44148;BME280;29810;55.848;37.368;2023-01-15T18:12:19;99409.03;;;-1.38;75.79
44148;BME280;29810;55.848;37.368;2023-01-15T18:15:20;99394.38;;;-1.48;75.86
44148;BME280;29810;55.848;37.368;2023-01-15T18:18:22;99349.75;;;-1.69;75.84